Lake, Michigan
Current Conditions -  °F | °C
As of 12:15 PM on Thursday 27 Nov 2014 (Local Time) from KMOP Reporting Station
Overcast Overcast  
Wind Chill: 19°   Ceiling: 2700
Heat Index: 29°   Visibility: 10mi
Dew Point: 19°   Wind: 10mph
Humidity: 67%   Direction: 310°NW
Pressure: 30.18"   Gusts: NA
Location:  43.85°N, 85.01°W
Report Text: KMOP 271715Z AUTO 31009KT 10SM OVC027 M02/M07 A3018 RMK AO2 T10191072
Loading
Personal Weather Stations






























Interactive Weather Map New forecast layout! Learn more

10-Day Weather Forecast

Advertisements
Track Severe Weather on mobile